sensor_id;sensor_type;location;lat;lon;timestamp;P1;durP1;ratioP1;P2;durP2;ratioP2
11016;SDS011;54687;50.800;6.772;2022-11-15T00:01:06;7.32;;;6.45;;
11016;SDS011;54687;50.800;6.772;2022-11-15T00:03:33;7.13;;;6.35;;
11016;SDS011;54687;50.800;6.772;2022-11-15T00:06:00;7.25;;;5.95;;
11016;SDS011;54687;50.800;6.772;2022-11-15T00:08:28;7.32;;;6.28;;
11016;SDS011;54687;50.800;6.772;2022-11-15T00:10:55;6.55;;;5.78;;
11016;SDS011;54687;50.800;6.772;2022-11-15T00:13:24;6.95;;;6.25;;
11016;SDS011;54687;50.800;6.772;2022-11-15T00:15:51;6.40;;;5.80;;
11016;SDS011;54687;50.800;6.772;2022-11-15T00:18:18;8.13;;;6.90;;
11016;SDS011;54687;50.800;6.772;2022-11-15T00:20:45;7.32;;;6.57;;
11016;SDS011;54687;50.800;6.772;2022-11-15T00:23:11;7.53;;;6.78;;
11016;SDS011;54687;50.800;6.772;2022-11-15T00:25:38;8.15;;;7.35;;
11016;SDS011;54687;50.800;6.772;2022-11-15T00:28:05;9.15;;;7.53;;
11016;SDS011;54687;50.800;6.772;2022-11-15T00:30:33;11.00;;;8.00;;
11016;SDS011;54687;50.800;6.772;2022-11-15T00:33:01;9.65;;;8.63;;
11016;SDS011;54687;50.800;6.772;2022-11-15T00:35:30;8.30;;;7.50;;
11016;SDS011;54687;50.800;6.772;2022-11-15T00:37:58;7.53;;;6.80;;
11016;SDS011;54687;50.800;6.772;2022-11-15T00:40:24;7.43;;;6.63;;
11016;SDS011;54687;50.800;6.772;2022-11-15T00:42:51;7.50;;;6.80;;
11016;SDS011;54687;50.800;6.772;2022-11-15T00:45:18;8.55;;;6.45;;
11016;SDS011;54687;50.800;6.772;2022-11-15T00:47:46;7.13;;;5.85;;
11016;SDS011;54687;50.800;6.772;2022-11-15T00:50:13;9.05;;;6.60;;
11016;SDS011;54687;50.800;6.772;2022-11-15T00:52:40;6.70;;;6.10;;
11016;SDS011;54687;50.800;6.772;2022-11-15T00:55:06;7.38;;;5.90;;
11016;SDS011;54687;50.800;6.772;2022-11-15T00:57:35;6.82;;;6.20;;
11016;SDS011;54687;50.800;6.772;2022-11-15T01:00:02;6.22;;;5.32;;
11016;SDS011;54687;50.800;6.772;2022-11-15T01:02:30;6.35;;;5.45;;
11016;SDS011;54687;50.800;6.772;2022-11-15T01:04:58;7.28;;;4.78;;
11016;SDS011;54687;50.800;6.772;2022-11-15T01:07:24;5.80;;;5.30;;
11016;SDS011;54687;50.800;6.772;2022-11-15T01:09:51;5.60;;;5.10;;
11016;SDS011;54687;50.800;6.772;2022-11-15T01:12:18;6.32;;;5.22;;
11016;SDS011;54687;50.800;6.772;2022-11-15T01:14:45;6.20;;;5.60;;
11016;SDS011;54687;50.800;6.772;2022-11-15T01:17:12;5.32;;;4.82;;
11016;SDS011;54687;50.800;6.772;2022-11-15T01:19:38;7.03;;;5.65;;
11016;SDS011;54687;50.800;6.772;2022-11-15T01:22:06;6.40;;;5.80;;
11016;SDS011;54687;50.800;6.772;2022-11-15T01:24:33;6.30;;;5.80;;
11016;SDS011;54687;50.800;6.772;2022-11-15T01:26:59;6.10;;;5.18;;
11016;SDS011;54687;50.800;6.772;2022-11-15T01:29:26;5.95;;;5.35;;
11016;SDS011;54687;50.800;6.772;2022-11-15T01:31:53;6.53;;;5.93;;
11016;SDS011;54687;50.800;6.772;2022-11-15T01:34:19;6.40;;;5.45;;
11016;SDS011;54687;50.800;6.772;2022-11-15T01:36:46;7.90;;;6.28;;
11016;SDS011;54687;50.800;6.772;2022-11-15T01:39:14;7.28;;;6.57;;
11016;SDS011;54687;50.800;6.772;2022-11-15T01:41:41;7.03;;;6.40;;
11016;SDS011;54687;50.800;6.772;2022-11-15T01:47:09;8.85;;;8.00;;
11016;SDS011;54687;50.800;6.772;2022-11-15T01:49:41;10.48;;;8.02;;
11016;SDS011;54687;50.800;6.772;2022-11-15T01:52:17;9.13;;;8.23;;
11016;SDS011;54687;50.800;6.772;2022-11-15T01:54:47;9.30;;;8.40;;
11016;SDS011;54687;50.800;6.772;2022-11-15T01:57:18;11.20;;;8.48;;
11016;SDS011;54687;50.800;6.772;2022-11-15T01:59:44;8.40;;;7.60;;
11016;SDS011;54687;50.800;6.772;2022-11-15T02:02:12;9.68;;;8.73;;
11016;SDS011;54687;50.800;6.772;2022-11-15T02:04:40;9.35;;;8.27;;
11016;SDS011;54687;50.800;6.772;2022-11-15T02:07:09;10.77;;;9.60;;
11016;SDS011;54687;50.800;6.772;2022-11-15T02:09:38;9.98;;;8.98;;
11016;SDS011;54687;50.800;6.772;2022-11-15T02:12:07;8.07;;;7.47;;
11016;SDS011;54687;50.800;6.772;2022-11-15T02:14:36;8.38;;;7.57;;
11016;SDS011;54687;50.800;6.772;2022-11-15T02:17:10;8.68;;;7.88;;
11016;SDS011;54687;50.800;6.772;2022-11-15T02:20:08;8.70;;;7.80;;
11016;SDS011;54687;50.800;6.772;2022-11-15T02:26:35;7.45;;;6.75;;
11016;SDS011;54687;50.800;6.772;2022-11-15T02:29:26;7.25;;;6.50;;
11016;SDS011;54687;50.800;6.772;2022-11-15T02:32:04;6.90;;;6.30;;
11016;SDS011;54687;50.800;6.772;2022-11-15T02:34:40;5.78;;;5.30;;
11016;SDS011;54687;50.800;6.772;2022-11-15T02:37:15;6.30;;;5.72;;
11016;SDS011;54687;50.800;6.772;2022-11-15T02:39:49;5.22;;;4.82;;
11016;SDS011;54687;50.800;6.772;2022-11-15T02:42:21;5.60;;;5.10;;
11016;SDS011;54687;50.800;6.772;2022-11-15T02:45:11;5.50;;;5.03;;
11016;SDS011;54687;50.800;6.772;2022-11-15T02:47:43;6.05;;;5.53;;
11016;SDS011;54687;50.800;6.772;2022-11-15T02:50:15;5.97;;;5.47;;
11016;SDS011;54687;50.800;6.772;2022-11-15T02:52:44;5.65;;;5.13;;
11016;SDS011;54687;50.800;6.772;2022-11-15T02:55:28;7.30;;;5.38;;
11016;SDS011;54687;50.800;6.772;2022-11-15T02:58:00;6.07;;;5.15;;
11016;SDS011;54687;50.800;6.772;2022-11-15T03:00:42;5.35;;;4.95;;
11016;SDS011;54687;50.800;6.772;2022-11-15T03:03:20;5.38;;;4.88;;
11016;SDS011;54687;50.800;6.772;2022-11-15T03:06:04;5.88;;;5.38;;
11016;SDS011;54687;50.800;6.772;2022-11-15T03:08:42;6.03;;;5.43;;
11016;SDS011;54687;50.800;6.772;2022-11-15T03:11:17;5.85;;;5.35;;
11016;SDS011;54687;50.800;6.772;2022-11-15T03:13:47;6.40;;;5.80;;
11016;SDS011;54687;50.800;6.772;2022-11-15T03:16:19;6.32;;;5.82;;
11016;SDS011;54687;50.800;6.772;2022-11-15T03:18:53;6.38;;;5.78;;
11016;SDS011;54687;50.800;6.772;2022-11-15T03:21:23;6.18;;;5.57;;
11016;SDS011;54687;50.800;6.772;2022-11-15T03:23:51;6.10;;;5.70;;
11016;SDS011;54687;50.800;6.772;2022-11-15T03:26:21;6.53;;;5.93;;
11016;SDS011;54687;50.800;6.772;2022-11-15T03:28:52;5.57;;;5.07;;
11016;SDS011;54687;50.800;6.772;2022-11-15T03:31:22;5.22;;;4.75;;
11016;SDS011;54687;50.800;6.772;2022-11-15T03:34:13;5.28;;;4.88;;
11016;SDS011;54687;50.800;6.772;2022-11-15T03:36:47;5.05;;;4.57;;
11016;SDS011;54687;50.800;6.772;2022-11-15T03:39:16;5.10;;;4.63;;
11016;SDS011;54687;50.800;6.772;2022-11-15T03:41:43;3.83;;;3.53;;
11016;SDS011;54687;50.800;6.772;2022-11-15T03:44:16;4.30;;;4.00;;
11016;SDS011;54687;50.800;6.772;2022-11-15T03:46:55;4.00;;;3.63;;
11016;SDS011;54687;50.800;6.772;2022-11-15T03:49:28;3.60;;;3.30;;
11016;SDS011;54687;50.800;6.772;2022-11-15T03:51:59;3.88;;;3.58;;
11016;SDS011;54687;50.800;6.772;2022-11-15T03:54:27;3.67;;;3.13;;
11016;SDS011;54687;50.800;6.772;2022-11-15T03:56:54;3.20;;;3.00;;
11016;SDS011;54687;50.800;6.772;2022-11-15T03:59:21;3.30;;;3.03;;
11016;SDS011;54687;50.800;6.772;2022-11-15T04:01:48;3.63;;;3.33;;
11016;SDS011;54687;50.800;6.772;2022-11-15T04:04:15;3.47;;;3.20;;
11016;SDS011;54687;50.800;6.772;2022-11-15T04:06:43;3.35;;;3.10;;
11016;SDS011;54687;50.800;6.772;2022-11-15T04:09:09;4.18;;;3.83;;
11016;SDS011;54687;50.800;6.772;2022-11-15T04:11:36;3.72;;;3.42;;
11016;SDS011;54687;50.800;6.772;2022-11-15T04:14:02;3.60;;;3.05;;
11016;SDS011;54687;50.800;6.772;2022-11-15T04:16:29;3.67;;;3.38;;
11016;SDS011;54687;50.800;6.772;2022-11-15T04:18:56;3.38;;;3.08;;
11016;SDS011;54687;50.800;6.772;2022-11-15T04:21:36;3.85;;;3.30;;
11016;SDS011;54687;50.800;6.772;2022-11-15T04:24:21;3.05;;;2.80;;
11016;SDS011;54687;50.800;6.772;2022-11-15T04:26:48;3.42;;;3.13;;
11016;SDS011;54687;50.800;6.772;2022-11-15T04:29:14;3.30;;;3.10;;
11016;SDS011;54687;50.800;6.772;2022-11-15T04:32:09;3.75;;;3.42;;
11016;SDS011;54687;50.800;6.772;2022-11-15T04:34:36;3.63;;;3.40;;
11016;SDS011;54687;50.800;6.772;2022-11-15T04:37:03;3.58;;;3.28;;
11016;SDS011;54687;50.800;6.772;2022-11-15T04:39:39;3.50;;;3.20;;
11016;SDS011;54687;50.800;6.772;2022-11-15T04:42:07;3.65;;;3.38;;
11016;SDS011;54687;50.800;6.772;2022-11-15T04:44:34;3.90;;;3.50;;
11016;SDS011;54687;50.800;6.772;2022-11-15T04:47:01;3.60;;;3.30;;
11016;SDS011;54687;50.800;6.772;2022-11-15T04:49:28;3.20;;;2.95;;
11016;SDS011;54687;50.800;6.772;2022-11-15T04:51:54;3.50;;;3.25;;
11016;SDS011;54687;50.800;6.772;2022-11-15T04:54:21;2.90;;;2.70;;
11016;SDS011;54687;50.800;6.772;2022-11-15T04:56:49;2.65;;;2.45;;
11016;SDS011;54687;50.800;6.772;2022-11-15T04:59:16;2.85;;;2.50;;
11016;SDS011;54687;50.800;6.772;2022-11-15T05:01:42;2.47;;;2.28;;
11016;SDS011;54687;50.800;6.772;2022-11-15T05:04:09;2.17;;;2.08;;
11016;SDS011;54687;50.800;6.772;2022-11-15T05:06:47;2.03;;;1.92;;
11016;SDS011;54687;50.800;6.772;2022-11-15T05:09:15;2.22;;;2.13;;
11016;SDS011;54687;50.800;6.772;2022-11-15T05:11:42;2.10;;;2.00;;
11016;SDS011;54687;50.800;6.772;2022-11-15T05:14:10;2.17;;;1.98;;
11016;SDS011;54687;50.800;6.772;2022-11-15T05:16:36;2.30;;;2.10;;
11016;SDS011;54687;50.800;6.772;2022-11-15T05:19:03;2.20;;;2.10;;
11016;SDS011;54687;50.800;6.772;2022-11-15T05:21:31;2.10;;;2.00;;
11016;SDS011;54687;50.800;6.772;2022-11-15T05:23:58;2.50;;;2.30;;
11016;SDS011;54687;50.800;6.772;2022-11-15T05:26:25;2.60;;;2.40;;
11016;SDS011;54687;50.800;6.772;2022-11-15T05:28:53;2.90;;;2.70;;
11016;SDS011;54687;50.800;6.772;2022-11-15T05:31:21;2.97;;;2.78;;
11016;SDS011;54687;50.800;6.772;2022-11-15T05:33:49;2.85;;;2.65;;
11016;SDS011;54687;50.800;6.772;2022-11-15T05:36:17;2.92;;;2.72;;
11016;SDS011;54687;50.800;6.772;2022-11-15T05:38:50;2.75;;;2.55;;
11016;SDS011;54687;50.800;6.772;2022-11-15T05:41:18;2.88;;;2.67;;
11016;SDS011;54687;50.800;6.772;2022-11-15T05:43:46;2.70;;;2.50;;
11016;SDS011;54687;50.800;6.772;2022-11-15T05:46:15;3.00;;;2.80;;
11016;SDS011;54687;50.800;6.772;2022-11-15T05:48:45;2.90;;;2.70;;
11016;SDS011;54687;50.800;6.772;2022-11-15T05:51:16;2.75;;;2.55;;
11016;SDS011;54687;50.800;6.772;2022-11-15T05:53:45;2.80;;;2.60;;
11016;SDS011;54687;50.800;6.772;2022-11-15T05:56:12;2.67;;;2.47;;
11016;SDS011;54687;50.800;6.772;2022-11-15T05:58:39;2.80;;;2.60;;
11016;SDS011;54687;50.800;6.772;2022-11-15T06:01:07;3.05;;;2.80;;
11016;SDS011;54687;50.800;6.772;2022-11-15T06:03:34;3.33;;;3.03;;
11016;SDS011;54687;50.800;6.772;2022-11-15T06:06:02;2.45;;;2.22;;
11016;SDS011;54687;50.800;6.772;2022-11-15T06:08:29;2.70;;;2.50;;
11016;SDS011;54687;50.800;6.772;2022-11-15T06:10:55;2.20;;;2.10;;
11016;SDS011;54687;50.800;6.772;2022-11-15T06:13:22;1.98;;;1.88;;
11016;SDS011;54687;50.800;6.772;2022-11-15T06:15:49;2.20;;;2.10;;
11016;SDS011;54687;50.800;6.772;2022-11-15T06:18:15;2.45;;;2.25;;
11016;SDS011;54687;50.800;6.772;2022-11-15T06:20:42;2.60;;;2.22;;
11016;SDS011;54687;50.800;6.772;2022-11-15T06:23:10;2.30;;;2.10;;
11016;SDS011;54687;50.800;6.772;2022-11-15T06:25:38;2.53;;;2.33;;
11016;SDS011;54687;50.800;6.772;2022-11-15T06:28:04;3.08;;;2.42;;
11016;SDS011;54687;50.800;6.772;2022-11-15T06:30:31;3.05;;;2.85;;
11016;SDS011;54687;50.800;6.772;2022-11-15T06:32:58;3.67;;;2.88;;
11016;SDS011;54687;50.800;6.772;2022-11-15T06:35:26;3.80;;;3.30;;
11016;SDS011;54687;50.800;6.772;2022-11-15T06:37:53;3.67;;;2.80;;
11016;SDS011;54687;50.800;6.772;2022-11-15T06:40:21;2.35;;;2.22;;
11016;SDS011;54687;50.800;6.772;2022-11-15T06:42:48;2.72;;;2.53;;
11016;SDS011;54687;50.800;6.772;2022-11-15T06:45:15;5.75;;;3.30;;
11016;SDS011;54687;50.800;6.772;2022-11-15T06:47:44;3.10;;;2.78;;
11016;SDS011;54687;50.800;6.772;2022-11-15T06:50:11;3.50;;;3.20;;
11016;SDS011;54687;50.800;6.772;2022-11-15T06:52:38;6.90;;;5.75;;
11016;SDS011;54687;50.800;6.772;2022-11-15T06:55:05;7.20;;;6.50;;
11016;SDS011;54687;50.800;6.772;2022-11-15T06:57:34;7.15;;;5.82;;
11016;SDS011;54687;50.800;6.772;2022-11-15T07:00:02;7.57;;;6.72;;
11016;SDS011;54687;50.800;6.772;2022-11-15T07:02:30;8.32;;;7.05;;
11016;SDS011;54687;50.800;6.772;2022-11-15T07:05:00;6.28;;;5.68;;
11016;SDS011;54687;50.800;6.772;2022-11-15T07:07:26;7.28;;;5.15;;
11016;SDS011;54687;50.800;6.772;2022-11-15T07:09:53;5.47;;;4.40;;
11016;SDS011;54687;50.800;6.772;2022-11-15T07:12:19;4.93;;;4.38;;
11016;SDS011;54687;50.800;6.772;2022-11-15T07:14:48;7.18;;;3.55;;
11016;SDS011;54687;50.800;6.772;2022-11-15T07:19:52;3.45;;;2.83;;
11016;SDS011;54687;50.800;6.772;2022-11-15T07:22:19;3.80;;;2.75;;
11016;SDS011;54687;50.800;6.772;2022-11-15T07:24:46;4.15;;;3.15;;
11016;SDS011;54687;50.800;6.772;2022-11-15T07:27:12;8.65;;;6.80;;
11016;SDS011;54687;50.800;6.772;2022-11-15T07:29:39;4.47;;;3.30;;
11016;SDS011;54687;50.800;6.772;2022-11-15T07:32:07;4.35;;;3.50;;
11016;SDS011;54687;50.800;6.772;2022-11-15T07:34:35;3.80;;;3.10;;
11016;SDS011;54687;50.800;6.772;2022-11-15T07:37:02;3.20;;;2.60;;
11016;SDS011;54687;50.800;6.772;2022-11-15T07:39:28;2.60;;;2.40;;
11016;SDS011;54687;50.800;6.772;2022-11-15T07:41:55;3.28;;;2.72;;
11016;SDS011;54687;50.800;6.772;2022-11-15T07:44:36;4.80;;;3.92;;
11016;SDS011;54687;50.800;6.772;2022-11-15T07:47:02;4.07;;;3.65;;
11016;SDS011;54687;50.800;6.772;2022-11-15T07:49:30;4.03;;;3.35;;
11016;SDS011;54687;50.800;6.772;2022-11-15T07:51:57;3.25;;;2.90;;
11016;SDS011;54687;50.800;6.772;2022-11-15T07:54:24;3.38;;;3.08;;
11016;SDS011;54687;50.800;6.772;2022-11-15T07:56:51;3.50;;;3.20;;
11016;SDS011;54687;50.800;6.772;2022-11-15T07:59:17;6.25;;;3.92;;
11016;SDS011;54687;50.800;6.772;2022-11-15T08:01:44;4.95;;;4.40;;
11016;SDS011;54687;50.800;6.772;2022-11-15T08:04:11;5.53;;;5.03;;
11016;SDS011;54687;50.800;6.772;2022-11-15T08:06:39;9.00;;;6.82;;
11016;SDS011;54687;50.800;6.772;2022-11-15T08:09:05;8.25;;;6.40;;
11016;SDS011;54687;50.800;6.772;2022-11-15T08:11:32;6.18;;;5.57;;
11016;SDS011;54687;50.800;6.772;2022-11-15T08:13:59;5.45;;;4.85;;
11016;SDS011;54687;50.800;6.772;2022-11-15T08:16:26;5.18;;;4.38;;
11016;SDS011;54687;50.800;6.772;2022-11-15T08:18:52;5.28;;;4.22;;
11016;SDS011;54687;50.800;6.772;2022-11-15T08:21:19;4.70;;;4.20;;
11016;SDS011;54687;50.800;6.772;2022-11-15T08:23:48;4.95;;;4.45;;
11016;SDS011;54687;50.800;6.772;2022-11-15T08:26:15;7.45;;;4.40;;
11016;SDS011;54687;50.800;6.772;2022-11-15T08:28:41;4.93;;;4.25;;
11016;SDS011;54687;50.800;6.772;2022-11-15T08:31:12;6.75;;;5.20;;
11016;SDS011;54687;50.800;6.772;2022-11-15T08:33:40;8.05;;;5.50;;
11016;SDS011;54687;50.800;6.772;2022-11-15T08:36:10;11.13;;;4.75;;
11016;SDS011;54687;50.800;6.772;2022-11-15T08:38:39;8.20;;;4.47;;
11016;SDS011;54687;50.800;6.772;2022-11-15T08:41:07;4.35;;;3.40;;
11016;SDS011;54687;50.800;6.772;2022-11-15T08:43:37;4.80;;;3.10;;
11016;SDS011;54687;50.800;6.772;2022-11-15T08:46:03;3.42;;;3.13;;
11016;SDS011;54687;50.800;6.772;2022-11-15T08:48:30;3.88;;;2.85;;
11016;SDS011;54687;50.800;6.772;2022-11-15T08:50:57;3.42;;;2.95;;
11016;SDS011;54687;50.800;6.772;2022-11-15T08:53:24;5.55;;;2.60;;
11016;SDS011;54687;50.800;6.772;2022-11-15T08:55:53;2.85;;;1.75;;
11016;SDS011;54687;50.800;6.772;2022-11-15T08:58:21;1.80;;;1.70;;
11016;SDS011;54687;50.800;6.772;2022-11-15T09:00:47;4.35;;;2.17;;
11016;SDS011;54687;50.800;6.772;2022-11-15T09:03:15;1.77;;;1.67;;
11016;SDS011;54687;50.800;6.772;2022-11-15T09:05:44;2.92;;;1.60;;
11016;SDS011;54687;50.800;6.772;2022-11-15T09:08:10;1.67;;;1.52;;
11016;SDS011;54687;50.800;6.772;2022-11-15T09:10:37;2.15;;;1.48;;
11016;SDS011;54687;50.800;6.772;2022-11-15T09:13:04;3.28;;;1.40;;
11016;SDS011;54687;50.800;6.772;2022-11-15T09:15:32;2.15;;;1.60;;
11016;SDS011;54687;50.800;6.772;2022-11-15T09:17:59;3.92;;;1.60;;
11016;SDS011;54687;50.800;6.772;2022-11-15T09:20:25;3.13;;;1.65;;
11016;SDS011;54687;50.800;6.772;2022-11-15T09:22:52;3.83;;;1.80;;
11016;SDS011;54687;50.800;6.772;2022-11-15T09:25:18;2.60;;;2.13;;
11016;SDS011;54687;50.800;6.772;2022-11-15T09:27:45;5.68;;;1.73;;
11016;SDS011;54687;50.800;6.772;2022-11-15T09:30:12;2.00;;;1.55;;
11016;SDS011;54687;50.800;6.772;2022-11-15T09:32:40;4.88;;;2.10;;
11016;SDS011;54687;50.800;6.772;2022-11-15T09:35:07;1.52;;;1.40;;
11016;SDS011;54687;50.800;6.772;2022-11-15T09:37:34;2.22;;;1.30;;
11016;SDS011;54687;50.800;6.772;2022-11-15T09:40:01;2.70;;;1.60;;
11016;SDS011;54687;50.800;6.772;2022-11-15T09:42:35;4.60;;;1.48;;
11016;SDS011;54687;50.800;6.772;2022-11-15T09:45:17;3.83;;;1.50;;
11016;SDS011;54687;50.800;6.772;2022-11-15T09:47:59;1.90;;;1.40;;
11016;SDS011;54687;50.800;6.772;2022-11-15T09:50:39;1.58;;;1.13;;
11016;SDS011;54687;50.800;6.772;2022-11-15T09:53:13;2.30;;;1.27;;
11016;SDS011;54687;50.800;6.772;2022-11-15T09:55:46;1.48;;;1.13;;
11016;SDS011;54687;50.800;6.772;2022-11-15T09:58:19;1.63;;;1.20;;
11016;SDS011;54687;50.800;6.772;2022-11-15T10:00:53;1.80;;;1.08;;
11016;SDS011;54687;50.800;6.772;2022-11-15T10:03:24;2.28;;;1.20;;
11016;SDS011;54687;50.800;6.772;2022-11-15T10:05:55;5.10;;;1.40;;
11016;SDS011;54687;50.800;6.772;2022-11-15T10:08:30;4.03;;;1.65;;
11016;SDS011;54687;50.800;6.772;2022-11-15T10:11:03;3.55;;;1.40;;
11016;SDS011;54687;50.800;6.772;2022-11-15T10:13:35;1.73;;;1.10;;
11016;SDS011;54687;50.800;6.772;2022-11-15T10:16:04;4.93;;;1.40;;
11016;SDS011;54687;50.800;6.772;2022-11-15T10:18:49;3.47;;;1.25;;
11016;SDS011;54687;50.800;6.772;2022-11-15T10:21:28;2.20;;;1.02;;
11016;SDS011;54687;50.800;6.772;2022-11-15T10:24:06;2.05;;;1.27;;
11016;SDS011;54687;50.800;6.772;2022-11-15T10:26:36;2.83;;;1.80;;
11016;SDS011;54687;50.800;6.772;2022-11-15T10:29:03;3.38;;;1.35;;
11016;SDS011;54687;50.800;6.772;2022-11-15T10:31:30;1.38;;;1.17;;
11016;SDS011;54687;50.800;6.772;2022-11-15T10:34:05;3.00;;;1.38;;
11016;SDS011;54687;50.800;6.772;2022-11-15T10:36:39;3.70;;;1.27;;
11016;SDS011;54687;50.800;6.772;2022-11-15T10:39:11;1.33;;;0.70;;
11016;SDS011;54687;50.800;6.772;2022-11-15T10:41:39;2.33;;;1.23;;
11016;SDS011;54687;50.800;6.772;2022-11-15T10:47:16;4.43;;;1.52;;
11016;SDS011;54687;50.800;6.772;2022-11-15T10:49:56;4.07;;;1.40;;
11016;SDS011;54687;50.800;6.772;2022-11-15T10:52:30;5.88;;;1.35;;
11016;SDS011;54687;50.800;6.772;2022-11-15T10:55:00;2.72;;;1.10;;
11016;SDS011;54687;50.800;6.772;2022-11-15T10:57:33;2.75;;;1.20;;
11016;SDS011;54687;50.800;6.772;2022-11-15T11:00:04;2.28;;;1.60;;
11016;SDS011;54687;50.800;6.772;2022-11-15T11:02:34;1.60;;;1.20;;
11016;SDS011;54687;50.800;6.772;2022-11-15T11:05:04;4.30;;;1.77;;
11016;SDS011;54687;50.800;6.772;2022-11-15T11:07:55;3.40;;;1.35;;
11016;SDS011;54687;50.800;6.772;2022-11-15T11:10:23;2.08;;;1.02;;
11016;SDS011;54687;50.800;6.772;2022-11-15T11:12:50;2.13;;;1.25;;
11016;SDS011;54687;50.800;6.772;2022-11-15T11:15:17;2.55;;;1.00;;
11016;SDS011;54687;50.800;6.772;2022-11-15T11:17:48;3.45;;;1.48;;
11016;SDS011;54687;50.800;6.772;2022-11-15T11:20:25;3.45;;;1.67;;
11016;SDS011;54687;50.800;6.772;2022-11-15T11:23:03;1.42;;;1.15;;
11016;SDS011;54687;50.800;6.772;2022-11-15T11:25:43;2.22;;;1.17;;
11016;SDS011;54687;50.800;6.772;2022-11-15T11:28:21;2.15;;;1.50;;
11016;SDS011;54687;50.800;6.772;2022-11-15T11:31:02;3.28;;;1.20;;
11016;SDS011;54687;50.800;6.772;2022-11-15T11:33:39;3.85;;;1.80;;
11016;SDS011;54687;50.800;6.772;2022-11-15T11:36:15;2.92;;;1.17;;
11016;SDS011;54687;50.800;6.772;2022-11-15T11:38:53;3.10;;;1.20;;
11016;SDS011;54687;50.800;6.772;2022-11-15T11:41:46;1.92;;;1.20;;
11016;SDS011;54687;50.800;6.772;2022-11-15T11:44:24;4.18;;;1.55;;
11016;SDS011;54687;50.800;6.772;2022-11-15T11:46:59;3.22;;;1.42;;
11016;SDS011;54687;50.800;6.772;2022-11-15T11:49:29;4.53;;;1.50;;
11016;SDS011;54687;50.800;6.772;2022-11-15T11:52:06;2.40;;;1.40;;
11016;SDS011;54687;50.800;6.772;2022-11-15T11:54:42;4.78;;;1.50;;
11016;SDS011;54687;50.800;6.772;2022-11-15T11:57:16;4.22;;;1.33;;
11016;SDS011;54687;50.800;6.772;2022-11-15T11:59:53;1.95;;;1.23;;
11016;SDS011;54687;50.800;6.772;2022-11-15T12:02:27;2.00;;;1.35;;
11016;SDS011;54687;50.800;6.772;2022-11-15T12:04:57;2.53;;;1.42;;
11016;SDS011;54687;50.800;6.772;2022-11-15T12:07:35;2.55;;;1.67;;
11016;SDS011;54687;50.800;6.772;2022-11-15T12:10:04;1.75;;;1.27;;
11016;SDS011;54687;50.800;6.772;2022-11-15T12:12:44;1.83;;;1.20;;
11016;SDS011;54687;50.800;6.772;2022-11-15T12:15:16;2.75;;;1.55;;
11016;SDS011;54687;50.800;6.772;2022-11-15T12:17:47;3.47;;;1.40;;
11016;SDS011;54687;50.800;6.772;2022-11-15T12:20:15;3.03;;;1.17;;
11016;SDS011;54687;50.800;6.772;2022-11-15T12:22:47;2.95;;;1.50;;
11016;SDS011;54687;50.800;6.772;2022-11-15T12:25:20;2.67;;;1.50;;
11016;SDS011;54687;50.800;6.772;2022-11-15T12:27:49;2.35;;;1.40;;
11016;SDS011;54687;50.800;6.772;2022-11-15T12:30:21;2.10;;;1.55;;
11016;SDS011;54687;50.800;6.772;2022-11-15T12:32:51;2.95;;;1.65;;
11016;SDS011;54687;50.800;6.772;2022-11-15T12:35:24;4.60;;;1.70;;
11016;SDS011;54687;50.800;6.772;2022-11-15T12:37:55;2.35;;;1.23;;
11016;SDS011;54687;50.800;6.772;2022-11-15T12:40:32;3.58;;;1.70;;
11016;SDS011;54687;50.800;6.772;2022-11-15T12:46:11;4.63;;;2.10;;
11016;SDS011;54687;50.800;6.772;2022-11-15T12:48:46;2.10;;;1.60;;
11016;SDS011;54687;50.800;6.772;2022-11-15T12:51:15;3.97;;;1.70;;
11016;SDS011;54687;50.800;6.772;2022-11-15T12:53:43;2.92;;;1.58;;
11016;SDS011;54687;50.800;6.772;2022-11-15T12:56:18;2.92;;;1.50;;
11016;SDS011;54687;50.800;6.772;2022-11-15T12:58:48;3.85;;;1.77;;
11016;SDS011;54687;50.800;6.772;2022-11-15T13:04:23;4.88;;;1.90;;
11016;SDS011;54687;50.800;6.772;2022-11-15T13:06:52;2.28;;;1.60;;
11016;SDS011;54687;50.800;6.772;2022-11-15T13:18:32;2.42;;;1.80;;
11016;SDS011;54687;50.800;6.772;2022-11-15T13:21:01;2.67;;;1.80;;
11016;SDS011;54687;50.800;6.772;2022-11-15T13:23:52;4.57;;;2.10;;
11016;SDS011;54687;50.800;6.772;2022-11-15T13:26:21;3.47;;;2.90;;
11016;SDS011;54687;50.800;6.772;2022-11-15T13:28:49;6.03;;;2.33;;
11016;SDS011;54687;50.800;6.772;2022-11-15T13:31:22;3.53;;;1.98;;
11016;SDS011;54687;50.800;6.772;2022-11-15T13:33:51;2.90;;;2.60;;
11016;SDS011;54687;50.800;6.772;2022-11-15T13:36:20;3.13;;;2.20;;
11016;SDS011;54687;50.800;6.772;2022-11-15T13:38:54;4.22;;;3.00;;
11016;SDS011;54687;50.800;6.772;2022-11-15T13:41:25;3.95;;;3.15;;
11016;SDS011;54687;50.800;6.772;2022-11-15T13:43:53;6.72;;;3.13;;
11016;SDS011;54687;50.800;6.772;2022-11-15T13:46:22;3.38;;;2.90;;
11016;SDS011;54687;50.800;6.772;2022-11-15T13:48:53;3.20;;;2.90;;
11016;SDS011;54687;50.800;6.772;2022-11-15T13:51:24;9.18;;;3.72;;
11016;SDS011;54687;50.800;6.772;2022-11-15T13:53:57;4.03;;;3.33;;
11016;SDS011;54687;50.800;6.772;2022-11-15T13:56:29;3.22;;;3.00;;
11016;SDS011;54687;50.800;6.772;2022-11-15T13:58:59;4.70;;;3.15;;
11016;SDS011;54687;50.800;6.772;2022-11-15T14:01:26;3.58;;;3.20;;
11016;SDS011;54687;50.800;6.772;2022-11-15T14:03:58;4.95;;;3.10;;
11016;SDS011;54687;50.800;6.772;2022-11-15T14:06:27;5.25;;;3.50;;
11016;SDS011;54687;50.800;6.772;2022-11-15T14:09:00;3.90;;;3.30;;
11016;SDS011;54687;50.800;6.772;2022-11-15T14:11:32;5.38;;;3.20;;
11016;SDS011;54687;50.800;6.772;2022-11-15T14:14:01;4.78;;;3.75;;
11016;SDS011;54687;50.800;6.772;2022-11-15T14:16:37;4.45;;;3.28;;
11016;SDS011;54687;50.800;6.772;2022-11-15T14:19:06;4.53;;;3.03;;
11016;SDS011;54687;50.800;6.772;2022-11-15T14:21:35;5.05;;;3.50;;
11016;SDS011;54687;50.800;6.772;2022-11-15T14:24:14;4.05;;;3.10;;
11016;SDS011;54687;50.800;6.772;2022-11-15T14:26:43;3.72;;;3.40;;
11016;SDS011;54687;50.800;6.772;2022-11-15T14:29:23;5.03;;;3.40;;
11016;SDS011;54687;50.800;6.772;2022-11-15T14:31:50;7.18;;;3.38;;
11016;SDS011;54687;50.800;6.772;2022-11-15T14:34:17;4.22;;;2.85;;
11016;SDS011;54687;50.800;6.772;2022-11-15T14:36:43;4.10;;;3.20;;
11016;SDS011;54687;50.800;6.772;2022-11-15T14:39:10;4.45;;;2.90;;
11016;SDS011;54687;50.800;6.772;2022-11-15T14:41:36;7.03;;;3.35;;
11016;SDS011;54687;50.800;6.772;2022-11-15T14:44:05;6.10;;;3.88;;
11016;SDS011;54687;50.800;6.772;2022-11-15T14:46:32;6.15;;;3.17;;
11016;SDS011;54687;50.800;6.772;2022-11-15T14:48:59;6.15;;;3.53;;
11016;SDS011;54687;50.800;6.772;2022-11-15T14:51:25;6.15;;;3.53;;
11016;SDS011;54687;50.800;6.772;2022-11-15T14:53:52;5.05;;;3.90;;
11016;SDS011;54687;50.800;6.772;2022-11-15T14:56:20;4.10;;;3.20;;
11016;SDS011;54687;50.800;6.772;2022-11-15T14:58:46;3.55;;;3.08;;
11016;SDS011;54687;50.800;6.772;2022-11-15T15:01:16;3.53;;;3.22;;
11016;SDS011;54687;50.800;6.772;2022-11-15T15:03:47;6.80;;;3.08;;
11016;SDS011;54687;50.800;6.772;2022-11-15T15:06:14;4.07;;;3.20;;
11016;SDS011;54687;50.800;6.772;2022-11-15T15:08:40;6.60;;;5.00;;
11016;SDS011;54687;50.800;6.772;2022-11-15T15:11:08;4.45;;;2.78;;
11016;SDS011;54687;50.800;6.772;2022-11-15T15:13:40;4.25;;;3.20;;
11016;SDS011;54687;50.800;6.772;2022-11-15T15:16:07;4.28;;;3.70;;
11016;SDS011;54687;50.800;6.772;2022-11-15T15:18:35;4.13;;;3.08;;
11016;SDS011;54687;50.800;6.772;2022-11-15T15:21:02;4.43;;;2.88;;
11016;SDS011;54687;50.800;6.772;2022-11-15T15:23:32;7.95;;;3.10;;
11016;SDS011;54687;50.800;6.772;2022-11-15T15:26:00;3.15;;;2.72;;
11016;SDS011;54687;50.800;6.772;2022-11-15T15:28:27;4.70;;;2.88;;
11016;SDS011;54687;50.800;6.772;2022-11-15T15:30:54;2.92;;;2.70;;
11016;SDS011;54687;50.800;6.772;2022-11-15T15:33:20;4.10;;;2.90;;